createdAt,value
2022-12-25T00:00:56.484Z,23.67
2022-12-25T00:03:13.787Z,26.45
2022-12-25T00:05:30.959Z,22.63
2022-12-25T00:07:48.017Z,22.52
2022-12-25T00:10:05.496Z,18.65
2022-12-25T00:12:22.621Z,25.17
2022-12-25T00:14:40.083Z,24.55
2022-12-25T00:16:57.483Z,27.02
2022-12-25T00:19:14.498Z,23.23
2022-12-25T00:21:32.480Z,19.15
2022-12-25T00:23:49.644Z,22.25
2022-12-25T00:26:07.092Z,19.90
2022-12-25T00:28:24.162Z,20.83
2022-12-25T00:30:41.332Z,20.17
2022-12-25T00:32:59.945Z,19.25
2022-12-25T00:35:17.397Z,19.38
2022-12-25T00:37:34.533Z,17.02
2022-12-25T00:39:51.426Z,19.50
2022-12-25T00:42:08.841Z,21.95
2022-12-25T00:44:26.202Z,20.30
2022-12-25T00:46:44.585Z,21.95
2022-12-25T00:49:02.917Z,19.17
2022-12-25T00:51:20.224Z,23.30
2022-12-25T00:53:37.527Z,24.10
2022-12-25T00:55:54.671Z,21.20
2022-12-25T00:58:14.218Z,21.98
2022-12-25T01:00:31.263Z,20.98
2022-12-25T01:02:49.671Z,24.08
2022-12-25T01:05:06.784Z,23.67
2022-12-25T01:07:23.794Z,22.00
2022-12-25T01:09:40.778Z,19.65
2022-12-25T01:11:57.787Z,21.30
2022-12-25T01:14:15.225Z,21.40
2022-12-25T01:16:32.589Z,16.55
2022-12-25T01:18:50.095Z,18.95
2022-12-25T01:21:07.254Z,22.48
2022-12-25T01:23:24.264Z,21.63
2022-12-25T01:25:41.653Z,24.52
2022-12-25T01:27:59.621Z,14.88
2022-12-25T01:30:16.985Z,19.75
2022-12-25T01:32:34.079Z,17.10
2022-12-25T01:34:55.851Z,16.90
2022-12-25T01:37:13.410Z,18.30
2022-12-25T01:39:30.476Z,19.35
2022-12-25T01:41:50.189Z,21.33
2022-12-25T01:44:07.577Z,19.45
2022-12-25T01:46:24.767Z,21.60
2022-12-25T01:48:41.959Z,15.93
2022-12-25T01:50:59.986Z,16.48
2022-12-25T01:53:17.326Z,16.95
2022-12-25T01:55:35.456Z,18.85
2022-12-25T01:57:52.498Z,21.40
2022-12-25T02:00:09.757Z,19.27
2022-12-25T02:02:26.860Z,29.60
2022-12-25T02:04:44.339Z,25.00
2022-12-25T02:07:01.220Z,23.30
2022-12-25T02:09:18.296Z,21.88
2022-12-25T02:11:35.403Z,21.63
2022-12-25T02:13:52.570Z,21.25
2022-12-25T02:16:09.557Z,24.67
2022-12-25T02:18:26.588Z,26.40
2022-12-25T02:20:43.940Z,25.52
2022-12-25T02:23:01.358Z,22.70
2022-12-25T02:25:18.493Z,23.23
2022-12-25T02:27:35.557Z,24.00
2022-12-25T02:29:52.684Z,24.88
2022-12-25T02:32:09.801Z,16.67
2022-12-25T02:34:27.164Z,20.13
2022-12-25T02:36:44.538Z,21.23
2022-12-25T02:39:01.873Z,18.10
2022-12-25T02:41:19.989Z,25.77
2022-12-25T02:43:38.032Z,20.85
2022-12-25T02:45:55.045Z,24.30
2022-12-25T02:48:12.014Z,19.88
2022-12-25T02:50:29.373Z,22.75
2022-12-25T02:52:46.387Z,24.10
2022-12-25T02:55:03.462Z,25.00
2022-12-25T02:57:20.779Z,22.48
2022-12-25T02:59:37.991Z,18.88
2022-12-25T03:01:55.402Z,19.73
2022-12-25T03:04:12.732Z,23.88
2022-12-25T03:06:29.648Z,24.38
2022-12-25T03:08:46.611Z,23.63
2022-12-25T03:11:03.654Z,20.20
2022-12-25T03:13:20.716Z,22.98
2022-12-25T03:15:37.721Z,28.33
2022-12-25T03:17:55.061Z,21.55
2022-12-25T03:20:12.120Z,21.10
2022-12-25T03:22:30.017Z,21.92
2022-12-25T03:24:47.339Z,23.98
2022-12-25T03:27:04.621Z,18.20
2022-12-25T03:29:27.142Z,15.80
2022-12-25T03:31:47.239Z,19.25
2022-12-25T03:34:04.440Z,21.17
2022-12-25T03:36:21.480Z,21.15
2022-12-25T03:38:38.421Z,20.83
2022-12-25T03:40:55.348Z,20.45
2022-12-25T03:43:12.276Z,20.02
2022-12-25T03:45:29.325Z,19.17
2022-12-25T03:47:46.368Z,21.52
2022-12-25T03:50:03.282Z,19.30
2022-12-25T03:52:21.263Z,19.88
2022-12-25T03:54:38.353Z,22.48
2022-12-25T03:56:55.604Z,19.42
2022-12-25T03:59:16.531Z,16.45
2022-12-25T04:01:36.827Z,22.23
2022-12-25T04:03:53.804Z,17.10
2022-12-25T04:06:10.856Z,22.13
2022-12-25T04:08:27.754Z,20.33
2022-12-25T04:10:44.653Z,18.35
2022-12-25T04:13:01.692Z,22.73
2022-12-25T04:15:18.939Z,20.80
2022-12-25T04:17:35.990Z,18.23
2022-12-25T04:19:52.875Z,15.27
2022-12-25T04:22:09.889Z,19.55
2022-12-25T04:24:26.799Z,20.35
2022-12-25T04:26:44.156Z,17.75
2022-12-25T04:29:01.209Z,15.98
2022-12-25T04:31:18.544Z,20.27
2022-12-25T04:33:35.565Z,17.00
2022-12-25T04:35:52.636Z,20.85
2022-12-25T04:38:09.685Z,19.15
2022-12-25T04:40:26.705Z,17.80
2022-12-25T04:42:43.755Z,15.88
2022-12-25T04:45:01.011Z,17.63
2022-12-25T04:47:18.292Z,17.85
2022-12-25T04:49:35.202Z,18.50
2022-12-25T04:51:52.146Z,16.95
2022-12-25T04:54:09.214Z,21.30
2022-12-25T04:56:26.115Z,14.88
2022-12-25T04:58:43.413Z,14.63
2022-12-25T05:01:01.692Z,19.13
2022-12-25T05:03:18.723Z,15.30
2022-12-25T05:05:36.016Z,12.65
2022-12-25T05:07:53.322Z,16.05
2022-12-25T05:10:10.266Z,14.48
2022-12-25T05:12:27.341Z,18.48
2022-12-25T05:14:44.272Z,16.40
2022-12-25T05:17:01.310Z,16.70
2022-12-25T05:19:18.219Z,16.45
2022-12-25T05:21:35.430Z,14.77
2022-12-25T05:23:52.419Z,16.17
2022-12-25T05:26:09.372Z,17.27
2022-12-25T05:28:26.280Z,18.05
2022-12-25T05:30:43.240Z,17.60
2022-12-25T05:33:00.185Z,16.52
2022-12-25T05:35:17.884Z,16.95
2022-12-25T05:37:34.788Z,13.43
2022-12-25T05:39:51.985Z,15.02
2022-12-25T05:42:09.015Z,14.38
2022-12-25T05:44:25.961Z,18.90
2022-12-25T05:46:42.972Z,14.63
2022-12-25T05:48:59.896Z,13.20
2022-12-25T05:51:16.872Z,19.52
2022-12-25T05:53:33.835Z,16.33
2022-12-25T05:55:50.734Z,18.08
2022-12-25T05:58:07.823Z,15.95
2022-12-25T06:00:24.867Z,14.27
2022-12-25T06:02:42.021Z,13.00
2022-12-25T06:04:59.440Z,13.70
2022-12-25T06:07:16.442Z,11.52
2022-12-25T06:09:33.480Z,13.98
2022-12-25T06:11:50.555Z,14.70
2022-12-25T06:14:07.469Z,16.02
2022-12-25T06:16:24.502Z,15.13
2022-12-25T06:18:41.528Z,16.58
2022-12-25T06:20:58.495Z,16.25
2022-12-25T06:23:15.594Z,14.15
2022-12-25T06:25:32.641Z,13.15
2022-12-25T06:27:49.551Z,13.43
2022-12-25T06:30:07.553Z,13.80
2022-12-25T06:32:24.793Z,15.23
2022-12-25T06:34:41.683Z,13.57
2022-12-25T06:36:58.622Z,14.82
2022-12-25T06:39:15.965Z,17.70
2022-12-25T06:41:33.004Z,16.33
2022-12-25T06:43:49.934Z,13.75
2022-12-25T06:46:10.468Z,14.23
2022-12-25T06:48:27.926Z,18.05
2022-12-25T06:50:45.886Z,13.80
2022-12-25T06:53:02.917Z,14.80
2022-12-25T06:55:19.948Z,15.43
2022-12-25T06:57:36.993Z,16.27
2022-12-25T06:59:55.558Z,14.13
2022-12-25T07:02:13.044Z,15.38
2022-12-25T07:04:30.301Z,15.48
2022-12-25T07:06:47.676Z,22.23
2022-12-25T07:09:04.885Z,19.05
2022-12-25T07:11:22.117Z,17.65
2022-12-25T07:13:39.413Z,13.95
2022-12-25T07:15:57.725Z,21.05
2022-12-25T07:18:14.756Z,17.73
2022-12-25T07:20:31.785Z,15.30
2022-12-25T07:22:48.843Z,18.40
2022-12-25T07:25:06.153Z,13.35
2022-12-25T07:27:23.391Z,15.77
2022-12-25T07:29:41.389Z,17.33
2022-12-25T07:31:58.338Z,18.10
2022-12-25T07:34:15.742Z,14.88
2022-12-25T07:36:32.728Z,11.40
2022-12-25T07:38:49.723Z,18.02
2022-12-25T07:41:06.783Z,17.60
2022-12-25T07:43:24.068Z,15.60
2022-12-25T07:45:41.136Z,14.27
2022-12-25T07:48:04.361Z,16.63
2022-12-25T07:50:22.140Z,14.80
2022-12-25T07:52:43.403Z,13.15
2022-12-25T07:55:01.154Z,13.10
2022-12-25T07:57:20.601Z,16.25
2022-12-25T07:59:37.624Z,14.60
2022-12-25T08:01:54.995Z,16.60
2022-12-25T08:04:12.276Z,17.30
2022-12-25T08:06:29.683Z,16.33
2022-12-25T08:08:47.072Z,16.27
2022-12-25T08:11:05.119Z,21.35
2022-12-25T08:13:22.169Z,17.88
2022-12-25T08:15:40.375Z,13.52
2022-12-25T08:17:57.412Z,18.42
2022-12-25T08:20:14.367Z,18.80
2022-12-25T08:22:31.401Z,12.93
2022-12-25T08:24:48.680Z,18.83
2022-12-25T08:27:05.993Z,13.68
2022-12-25T08:29:23.223Z,18.48
2022-12-25T08:31:45.899Z,15.60
2022-12-25T08:34:03.593Z,15.10
2022-12-25T08:36:20.525Z,16.85
2022-12-25T08:38:37.872Z,13.35
2022-12-25T08:40:54.885Z,17.40
2022-12-25T08:43:11.954Z,19.75
2022-12-25T08:45:34.826Z,16.90
2022-12-25T08:47:52.484Z,22.60
2022-12-25T08:50:09.758Z,16.27
2022-12-25T08:52:26.893Z,20.58
2022-12-25T08:54:44.133Z,16.60
2022-12-25T08:57:03.030Z,14.80
2022-12-25T08:59:20.193Z,15.43
2022-12-25T09:01:37.532Z,20.75
2022-12-25T09:03:54.600Z,14.57
2022-12-25T09:06:11.662Z,17.75
2022-12-25T09:08:28.699Z,16.02
2022-12-25T09:10:45.962Z,20.08
2022-12-25T09:13:02.863Z,13.25
2022-12-25T09:15:19.796Z,17.20
2022-12-25T09:17:37.830Z,19.45
2022-12-25T09:19:55.071Z,19.55
2022-12-25T09:22:12.113Z,16.80
2022-12-25T09:24:29.391Z,16.60
2022-12-25T09:26:46.340Z,18.40
2022-12-25T09:29:03.259Z,19.30
2022-12-25T09:31:20.387Z,13.10
2022-12-25T09:33:37.551Z,21.90
2022-12-25T09:35:54.536Z,15.27
2022-12-25T09:38:11.749Z,17.02
2022-12-25T09:40:28.859Z,18.75
2022-12-25T09:42:46.169Z,19.80
2022-12-25T09:45:03.475Z,17.88
2022-12-25T09:47:20.753Z,15.95
2022-12-25T09:49:38.781Z,16.73
2022-12-25T09:51:56.074Z,17.98
2022-12-25T09:54:13.123Z,16.80
2022-12-25T09:56:30.363Z,20.33
2022-12-25T09:58:47.255Z,15.05
2022-12-25T10:01:04.508Z,18.30
2022-12-25T10:03:21.491Z,15.70
2022-12-25T10:05:38.458Z,14.73
2022-12-25T10:07:55.507Z,16.58
2022-12-25T10:10:12.861Z,12.85
2022-12-25T10:12:30.087Z,12.93
2022-12-25T10:14:47.407Z,14.02
2022-12-25T10:17:04.741Z,21.33
2022-12-25T10:19:22.105Z,16.33
2022-12-25T10:21:39.113Z,16.73
2022-12-25T10:23:56.163Z,14.15
2022-12-25T10:26:13.246Z,12.38
2022-12-25T10:28:30.540Z,13.73
2022-12-25T10:30:47.488Z,13.90
2022-12-25T10:33:04.534Z,13.73
2022-12-25T10:35:21.793Z,14.85
2022-12-25T10:37:38.850Z,22.40
2022-12-25T10:39:55.826Z,15.48
2022-12-25T10:42:12.880Z,13.48
2022-12-25T10:44:30.225Z,13.27
2022-12-25T10:46:47.414Z,13.57
2022-12-25T10:49:04.428Z,16.02
2022-12-25T10:51:21.443Z,13.27
2022-12-25T10:53:38.496Z,15.48
2022-12-25T10:55:55.531Z,11.32
2022-12-25T10:58:12.410Z,16.42
2022-12-25T11:00:29.315Z,12.98
2022-12-25T11:02:47.675Z,16.30
2022-12-25T11:05:04.880Z,11.85
2022-12-25T11:07:21.979Z,12.30
2022-12-25T11:09:38.948Z,11.02
2022-12-25T11:11:56.017Z,9.73
2022-12-25T11:14:13.025Z,16.92
2022-12-25T11:16:30.466Z,10.32
2022-12-25T11:18:47.637Z,11.05
2022-12-25T11:21:05.637Z,13.00
2022-12-25T11:23:23.599Z,10.15
2022-12-25T11:25:40.669Z,12.00
2022-12-25T11:27:57.657Z,11.10
2022-12-25T11:30:16.177Z,11.05
2022-12-25T11:32:33.602Z,8.50
2022-12-25T11:34:50.680Z,10.77
2022-12-25T11:37:08.926Z,10.50
2022-12-25T11:50:10.951Z,14.10
2022-12-25T11:52:27.856Z,10.57
2022-12-25T11:54:44.884Z,10.15
2022-12-25T11:57:01.785Z,8.65
2022-12-25T11:59:19.094Z,8.88
2022-12-25T12:01:36.518Z,7.57
2022-12-25T12:03:53.661Z,12.88
2022-12-25T12:06:10.980Z,8.30
2022-12-25T12:08:28.027Z,9.65
2022-12-25T12:10:45.268Z,9.98
2022-12-25T12:13:02.198Z,7.53
2022-12-25T12:15:19.440Z,6.55
2022-12-25T12:17:36.703Z,9.63
2022-12-25T12:19:53.745Z,11.48
2022-12-25T12:22:10.773Z,7.40
2022-12-25T12:24:27.675Z,8.05
2022-12-25T12:26:45.655Z,6.13
2022-12-25T12:29:02.673Z,6.57
2022-12-25T12:31:19.682Z,7.30
2022-12-25T12:33:36.982Z,5.25
2022-12-25T12:35:54.233Z,5.90
2022-12-25T12:38:11.240Z,7.45
2022-12-25T12:40:28.592Z,7.07
2022-12-25T12:42:45.537Z,7.53
2022-12-25T12:45:02.828Z,6.03
2022-12-25T12:47:19.837Z,11.15
2022-12-25T12:49:36.766Z,6.90
2022-12-25T12:51:53.756Z,5.32
2022-12-25T12:54:11.035Z,4.63
2022-12-25T12:56:27.975Z,7.97
2022-12-25T12:58:45.938Z,6.75
2022-12-25T13:01:02.876Z,7.57
2022-12-25T13:03:20.200Z,6.05
2022-12-25T13:05:37.353Z,6.88
2022-12-25T13:07:54.588Z,8.00
2022-12-25T13:10:11.879Z,8.68
2022-12-25T13:12:28.821Z,5.88
2022-12-25T13:14:45.860Z,7.05
2022-12-25T13:17:02.830Z,5.95
2022-12-25T13:19:20.066Z,4.38
2022-12-25T13:21:38.119Z,5.45
2022-12-25T13:23:55.406Z,6.00
2022-12-25T13:26:12.447Z,6.38
2022-12-25T13:28:29.401Z,5.95
2022-12-25T13:30:47.631Z,5.25
2022-12-25T13:33:04.654Z,5.93
2022-12-25T13:35:21.863Z,5.70
2022-12-25T13:37:39.166Z,5.63
2022-12-25T13:39:56.268Z,5.13
2022-12-25T13:42:13.491Z,6.65
2022-12-25T13:44:30.512Z,6.18
2022-12-25T13:46:47.587Z,7.25
2022-12-25T13:49:05.867Z,7.35
2022-12-25T13:51:22.805Z,6.63
2022-12-25T13:53:40.744Z,4.97
2022-12-25T13:55:57.824Z,6.10
2022-12-25T13:58:14.752Z,9.15
2022-12-25T14:00:31.787Z,5.90
2022-12-25T14:02:48.973Z,5.97
2022-12-25T14:05:05.962Z,4.13
2022-12-25T14:07:22.880Z,5.82
2022-12-25T14:09:40.223Z,6.13
2022-12-25T14:11:57.541Z,6.75
2022-12-25T14:14:14.528Z,4.78
2022-12-25T14:16:31.855Z,4.72
2022-12-25T14:18:49.196Z,6.95
2022-12-25T14:21:06.299Z,5.38
2022-12-25T14:23:23.310Z,5.50
2022-12-25T14:25:40.275Z,5.13
2022-12-25T14:27:57.548Z,5.43
2022-12-25T14:30:14.806Z,5.88
2022-12-25T14:32:32.052Z,6.07
2022-12-25T14:34:49.413Z,5.80
2022-12-25T14:37:06.350Z,7.05
2022-12-25T14:39:23.247Z,5.65
2022-12-25T14:41:41.257Z,5.05
2022-12-25T14:43:58.505Z,6.10
2022-12-25T14:46:16.522Z,8.88
2022-12-25T14:48:33.565Z,4.65
2022-12-25T14:50:50.833Z,5.43
2022-12-25T14:53:08.831Z,5.93
2022-12-25T14:55:26.064Z,8.48
2022-12-25T14:57:44.146Z,7.85
2022-12-25T15:00:01.273Z,5.88
2022-12-25T15:02:18.315Z,7.20
2022-12-25T15:04:35.441Z,6.15
2022-12-25T15:06:52.818Z,6.10
2022-12-25T15:09:09.891Z,6.45
2022-12-25T15:11:27.189Z,5.97
2022-12-25T15:13:44.302Z,5.70
2022-12-25T15:16:01.286Z,5.57
2022-12-25T15:18:18.361Z,8.13
2022-12-25T15:20:36.728Z,5.57
2022-12-25T15:23:18.491Z,5.72
2022-12-25T15:25:30.853Z,6.10
2022-12-25T15:27:47.826Z,5.75
2022-12-25T15:30:10.193Z,7.88
2022-12-25T15:32:28.073Z,6.90
2022-12-25T15:34:45.400Z,5.00
2022-12-25T15:37:02.431Z,5.85
2022-12-25T15:39:19.469Z,8.45
2022-12-25T15:41:36.662Z,7.32
2022-12-25T15:43:53.649Z,6.50
2022-12-25T15:46:10.937Z,6.78
2022-12-25T15:48:28.011Z,8.88
2022-12-25T15:50:44.975Z,5.65
2022-12-25T15:53:02.240Z,8.13
2022-12-25T15:55:20.487Z,8.88
2022-12-25T15:57:37.466Z,8.07
2022-12-25T15:59:54.532Z,7.88
2022-12-25T16:02:11.557Z,7.75
2022-12-25T16:04:28.604Z,7.68
2022-12-25T16:06:45.905Z,8.38
2022-12-25T16:09:02.833Z,8.32
2022-12-25T16:11:19.901Z,6.72
2022-12-25T16:13:37.154Z,7.40
2022-12-25T16:15:54.492Z,5.70
2022-12-25T16:18:11.814Z,11.38
2022-12-25T16:20:29.159Z,11.65
2022-12-25T16:22:46.479Z,8.07
2022-12-25T16:25:03.431Z,6.97
2022-12-25T16:27:21.370Z,12.95
2022-12-25T16:29:38.365Z,7.32
2022-12-25T16:31:55.298Z,9.82
2022-12-25T16:34:12.323Z,8.90
2022-12-25T16:36:29.264Z,7.35
2022-12-25T16:38:46.366Z,8.50
2022-12-25T16:41:03.303Z,7.32
2022-12-25T16:43:23.991Z,8.73
2022-12-25T16:45:42.318Z,10.45
2022-12-25T16:47:59.599Z,6.03
2022-12-25T16:50:16.548Z,7.38
2022-12-25T16:52:33.942Z,9.27
2022-12-25T16:54:51.027Z,9.60
2022-12-25T16:57:09.089Z,10.23
2022-12-25T16:59:26.022Z,13.52
2022-12-25T17:01:43.555Z,15.50
2022-12-25T17:04:00.761Z,11.77
2022-12-25T17:06:17.977Z,9.70
2022-12-25T17:08:35.264Z,10.60
2022-12-25T17:10:52.332Z,8.00
2022-12-25T17:13:09.296Z,10.25
2022-12-25T17:15:27.609Z,10.15
2022-12-25T17:17:44.870Z,8.75
2022-12-25T17:20:01.990Z,9.93
2022-12-25T17:22:19.271Z,7.63
2022-12-25T17:24:37.340Z,8.13
2022-12-25T17:26:54.398Z,10.57
2022-12-25T17:29:12.231Z,20.35
2022-12-25T17:31:30.679Z,16.15
2022-12-25T17:33:48.062Z,16.58
2022-12-25T17:36:05.327Z,12.50
2022-12-25T17:38:22.382Z,11.30
2022-12-25T17:40:39.668Z,13.05
2022-12-25T17:42:56.591Z,10.95
2022-12-25T17:45:14.835Z,10.20
2022-12-25T17:47:32.170Z,10.35
2022-12-25T17:49:49.199Z,14.27
2022-12-25T17:52:06.246Z,9.30
2022-12-25T17:54:23.596Z,9.57
2022-12-25T17:56:40.683Z,8.02
2022-12-25T17:58:57.745Z,8.73
2022-12-25T18:01:14.727Z,10.68
2022-12-25T18:03:31.915Z,10.02
2022-12-25T18:05:49.301Z,14.55
2022-12-25T18:08:06.597Z,7.72
2022-12-25T18:10:23.569Z,8.30
2022-12-25T18:12:40.602Z,9.27
2022-12-25T18:14:57.980Z,7.70
2022-12-25T18:17:15.065Z,13.75
2022-12-25T18:19:32.089Z,11.27
2022-12-25T18:21:49.362Z,11.27
2022-12-25T18:24:06.366Z,10.32
2022-12-25T18:26:23.407Z,9.95
2022-12-25T18:28:40.535Z,9.05
2022-12-25T18:30:58.840Z,10.30
2022-12-25T18:33:15.848Z,11.43
2022-12-25T18:35:32.785Z,10.75
2022-12-25T18:37:49.801Z,10.48
2022-12-25T18:40:06.718Z,10.15
2022-12-25T18:42:23.886Z,10.77
2022-12-25T18:44:40.898Z,11.60
2022-12-25T18:46:58.771Z,9.68
2022-12-25T18:49:15.815Z,18.45
2022-12-25T18:51:36.867Z,10.25
2022-12-25T18:53:54.315Z,10.80
2022-12-25T18:56:11.463Z,16.40
2022-12-25T18:58:28.728Z,11.25
2022-12-25T19:00:46.138Z,10.68
2022-12-25T19:03:03.299Z,13.85
2022-12-25T19:05:20.380Z,9.75
2022-12-25T19:07:37.700Z,11.95
2022-12-25T19:09:54.904Z,13.00
2022-12-25T19:12:12.699Z,16.45
2022-12-25T19:14:29.839Z,15.90
2022-12-25T19:17:05.059Z,14.73
2022-12-25T19:19:22.145Z,15.38
2022-12-25T19:21:39.420Z,16.55
2022-12-25T19:23:56.493Z,14.20
2022-12-25T19:26:13.499Z,14.75
2022-12-25T19:28:31.596Z,11.65
2022-12-25T19:30:48.654Z,18.02
2022-12-25T19:33:05.701Z,12.07
2022-12-25T19:35:22.704Z,11.18
2022-12-25T19:37:41.773Z,11.77
2022-12-25T19:39:59.061Z,13.00
2022-12-25T19:42:16.328Z,11.15
2022-12-25T19:44:33.622Z,14.40
2022-12-25T19:46:51.924Z,15.73
2022-12-25T19:49:08.865Z,17.33
2022-12-25T19:51:25.791Z,18.05
2022-12-25T19:53:42.729Z,15.00
2022-12-25T19:55:59.732Z,16.00
2022-12-25T19:58:16.892Z,15.27
2022-12-25T20:00:34.033Z,18.33
2022-12-25T20:02:51.236Z,13.35
2022-12-25T20:05:08.448Z,15.32
2022-12-25T20:07:25.363Z,12.88
2022-12-25T20:09:42.692Z,11.40
2022-12-25T20:12:00.015Z,10.05
2022-12-25T20:14:18.140Z,10.02
2022-12-25T20:16:35.458Z,10.88
2022-12-25T20:18:53.813Z,16.35
2022-12-25T20:21:10.795Z,17.20
2022-12-25T20:23:28.175Z,11.68
2022-12-25T20:25:45.225Z,12.40
2022-12-25T20:28:02.548Z,12.38
2022-12-25T20:30:19.623Z,14.07
2022-12-25T20:32:36.974Z,11.50
2022-12-25T20:34:54.045Z,12.77
2022-12-25T20:37:13.883Z,19.92
2022-12-25T20:39:30.972Z,103.85
2022-12-25T20:41:47.952Z,86.22
2022-12-25T20:44:05.277Z,35.30
2022-12-25T20:46:22.485Z,34.95
2022-12-25T20:48:40.676Z,25.45
2022-12-25T20:50:57.698Z,24.65
2022-12-25T20:53:14.770Z,38.40
2022-12-25T20:55:32.048Z,21.95
2022-12-25T20:57:49.078Z,14.65
2022-12-25T21:00:07.347Z,13.00
2022-12-25T21:02:35.590Z,13.38
2022-12-25T21:04:54.387Z,15.02
2022-12-25T21:07:11.450Z,10.98
2022-12-25T21:09:28.766Z,9.90
2022-12-25T21:11:45.867Z,13.50
2022-12-25T21:14:03.151Z,12.82
2022-12-25T21:16:20.363Z,8.65
2022-12-25T21:18:37.565Z,9.60
2022-12-25T21:20:54.595Z,11.88
2022-12-25T21:23:11.875Z,9.85
2022-12-25T21:25:28.951Z,9.45
2022-12-25T21:27:46.274Z,10.13
2022-12-25T21:30:15.016Z,11.23
2022-12-25T21:32:32.909Z,10.65
2022-12-25T21:34:49.869Z,9.55
2022-12-25T21:37:07.182Z,13.27
2022-12-25T21:39:24.491Z,9.80
2022-12-25T21:41:42.910Z,10.15
2022-12-25T21:44:00.305Z,12.88
2022-12-25T21:46:17.595Z,10.57
2022-12-25T21:48:34.997Z,12.18
2022-12-25T21:50:52.020Z,12.20
2022-12-25T21:53:09.369Z,11.55
2022-12-25T21:55:26.592Z,10.52
2022-12-25T21:57:43.863Z,13.10
2022-12-25T22:00:02.283Z,11.18
2022-12-25T22:02:20.524Z,13.63
2022-12-25T22:04:37.754Z,9.88
2022-12-25T22:06:56.034Z,11.70
2022-12-25T22:09:13.088Z,8.70
2022-12-25T22:11:30.434Z,13.23
2022-12-25T22:13:47.379Z,10.43
2022-12-25T22:16:04.707Z,9.25
2022-12-25T22:18:21.846Z,12.60
2022-12-25T22:20:38.965Z,9.38
2022-12-25T22:22:56.263Z,8.40
2022-12-25T22:25:13.311Z,10.18
2022-12-25T22:27:30.375Z,8.38
2022-12-25T22:29:47.405Z,9.60
2022-12-25T22:32:04.414Z,9.55
2022-12-25T22:34:21.783Z,8.63
2022-12-25T22:36:39.030Z,9.50
2022-12-25T22:38:56.055Z,11.77
2022-12-25T22:41:14.411Z,8.15
2022-12-25T22:44:06.390Z,9.85
2022-12-25T22:46:08.665Z,8.75
2022-12-25T22:48:25.699Z,9.05
2022-12-25T22:50:42.971Z,9.38
2022-12-25T22:53:00.299Z,11.20
2022-12-25T22:55:17.220Z,9.82
2022-12-25T22:57:34.399Z,9.27
2022-12-25T22:59:51.449Z,9.60
2022-12-25T23:02:08.643Z,7.68
2022-12-25T23:04:26.044Z,11.48
2022-12-25T23:06:43.085Z,11.50
2022-12-25T23:09:00.059Z,7.13
2022-12-25T23:11:17.167Z,8.02
2022-12-25T23:13:35.402Z,8.43
2022-12-25T23:15:53.832Z,8.55
2022-12-25T23:18:10.967Z,7.35
2022-12-25T23:20:28.289Z,7.65
2022-12-25T23:22:45.587Z,9.48
2022-12-25T23:25:02.912Z,6.13
2022-12-25T23:27:20.003Z,7.18
2022-12-25T23:29:37.432Z,8.00
2022-12-25T23:31:54.654Z,10.07
2022-12-25T23:34:11.612Z,7.18
2022-12-25T23:36:28.742Z,6.90
2022-12-25T23:38:46.762Z,6.32
2022-12-25T23:41:04.798Z,8.68
2022-12-25T23:43:21.825Z,8.68
2022-12-25T23:45:41.550Z,8.63
2022-12-25T23:47:58.745Z,9.60
2022-12-25T23:50:15.692Z,9.93
2022-12-25T23:52:33.054Z,7.22
2022-12-25T23:54:50.453Z,5.97
2022-12-25T23:57:07.388Z,6.55
2022-12-25T23:59:24.321Z,11.35
